Time;durP1;ratioP1;P1;durP2;ratioP2;P2;SDS_P1;SDS_P2;PMS_P1;PMS_P2;Temp;Humidity;BMP_temperature;BMP_pressure;BME280_temperature;BME280_humidity;BME280_pressure;Samples;Min_cycle;Max_cycle;Signal;HPM_P1;HPM_P2
2021/04/26 00:01:16;;;;;;;1.33;0.73;;;6.70;51.30;;;;;;5031281;28;20681;-73
2021/04/26 00:03:42;;;;;;;3.90;0.93;;;6.70;51.10;;;;;;5029875;28;20121;-72
2021/04/26 00:06:07;;;;;;;2.58;0.55;;;6.60;51.10;;;;;;5030732;28;20404;-72
2021/04/26 00:08:33;;;;;;;13.00;1.25;;;6.70;51.20;;;;;;5031044;28;20044;-72
2021/04/26 00:10:59;;;;;;;2.30;0.90;;;6.70;51.00;;;;;;5032491;28;20028;-73
2021/04/26 00:13:25;;;;;;;0.70;0.70;;;6.70;51.10;;;;;;5031116;28;20642;-72
2021/04/26 00:15:51;;;;;;;2.13;0.93;;;6.60;51.10;;;;;;5030868;28;20037;-72
2021/04/26 00:18:16;;;;;;;4.05;0.93;;;6.40;51.10;;;;;;5030586;28;20061;-72
2021/04/26 00:20:42;;;;;;;2.63;0.93;;;6.40;51.10;;;;;;5030245;28;20095;-72
2021/04/26 00:23:09;;;;;;;0.70;0.70;;;6.30;51.10;;;;;;5031894;28;20097;-73
2021/04/26 00:25:37;;;;;;;4.45;0.73;;;6.20;51.10;;;;;;5028785;28;20337;-71
2021/04/26 00:28:03;;;;;;;6.28;1.10;;;6.20;51.20;;;;;;5030519;28;20337;-72
2021/04/26 00:30:30;;;;;;;3.05;0.70;;;6.10;50.90;;;;;;5030283;28;20509;-72
2021/04/26 00:32:56;;;;;;;2.55;0.90;;;6.10;51.00;;;;;;5030381;28;20129;-72
2021/04/26 00:35:22;;;;;;;1.70;0.85;;;6.10;51.70;;;;;;5030165;28;20112;-72
2021/04/26 00:37:49;;;;;;;2.50;0.60;;;6.10;52.20;;;;;;5031895;28;20021;-72
2021/04/26 00:40:16;;;;;;;2.95;0.70;;;6.00;52.50;;;;;;5030124;28;20487;-72
2021/04/26 00:42:42;;;;;;;2.75;1.00;;;5.90;52.40;;;;;;5030360;28;20037;-72
2021/04/26 00:45:10;;;;;;;1.92;0.90;;;6.00;52.80;;;;;;5030320;28;20041;-72
2021/04/26 00:47:36;;;;;;;;;;;5.90;53.00;;;;;;5030438;28;20039;-71
2021/04/26 00:50:06;;;;;;;2.38;0.88;;;5.90;53.00;;;;;;5031649;28;19916;-72
2021/04/26 00:52:32;;;;;;;3.60;0.90;;;5.80;53.30;;;;;;5030124;28;20120;-73
2021/04/26 00:54:59;;;;;;;1.27;0.82;;;5.80;53.50;;;;;;5028779;28;20426;-73
2021/04/26 00:57:25;;;;;;;3.42;0.80;;;5.70;53.60;;;;;;5029866;28;20088;-73
2021/04/26 00:59:51;;;;;;;2.05;0.82;;;5.60;53.70;;;;;;5029824;28;20442;-73
2021/04/26 01:02:16;;;;;;;2.20;1.02;;;5.50;53.50;;;;;;5029789;28;20513;-71
2021/04/26 01:04:42;;;;;;;3.05;1.30;;;5.50;53.60;;;;;;5031519;28;20030;-72
2021/04/26 01:07:08;;;;;;;4.10;1.00;;;5.40;53.90;;;;;;5029851;28;20037;-72
2021/04/26 01:09:33;;;;;;;2.58;1.17;;;5.40;54.40;;;;;;5029633;28;20045;-72
2021/04/26 01:12:10;;;;;;;2.28;0.90;;;5.40;54.70;;;;;;5029445;28;20037;-72
2021/04/26 01:14:47;;;;;;;2.92;0.82;;;5.40;55.00;;;;;;5029813;28;20108;-72
2021/04/26 01:17:23;;;;;;;2.47;0.93;;;5.30;55.00;;;;;;5029537;28;20382;-71
2021/04/26 01:20:11;;;;;;;4.05;1.10;;;5.30;55.10;;;;;;5030837;28;20032;-72
2021/04/26 01:22:48;;;;;;;1.88;1.02;;;5.20;55.40;;;;;;5029696;28;20047;-72
2021/04/26 01:25:20;;;;;;;3.55;1.45;;;5.30;55.50;;;;;;5028117;28;20041;-74
2021/04/26 01:27:58;;;;;;;4.20;0.70;;;5.20;55.70;;;;;;5029161;28;20049;-72
2021/04/26 01:30:28;;;;;;;4.00;1.10;;;5.20;55.80;;;;;;5028177;28;20041;-73
2021/04/26 01:32:58;;;;;;;1.40;0.73;;;5.10;55.60;;;;;;5029446;28;20072;-72
2021/04/26 01:35:25;;;;;;;1.75;1.08;;;5.10;55.50;;;;;;5029119;28;20032;-73
2021/04/26 01:37:59;;;;;;;1.67;0.80;;;5.10;55.40;;;;;;5030802;28;20478;-73
2021/04/26 01:40:26;;;;;;;2.55;0.85;;;5.00;55.70;;;;;;5029298;28;20045;-72
2021/04/26 01:42:56;;;;;;;4.85;1.27;;;5.10;56.10;;;;;;5029058;28;20117;-73
2021/04/26 01:45:25;;;;;;;2.67;1.35;;;5.20;56.40;;;;;;5029138;28;20056;-74
2021/04/26 01:47:54;;;;;;;5.88;1.05;;;5.20;56.20;;;;;;5029169;28;20045;-73
2021/04/26 01:50:21;;;;;;;5.25;1.20;;;5.10;56.30;;;;;;5029096;28;20032;-73
2021/04/26 01:52:48;;;;;;;1.85;0.95;;;5.10;56.80;;;;;;5029582;28;20041;-73
2021/04/26 01:55:14;;;;;;;3.67;1.05;;;5.00;56.90;;;;;;5029110;28;20045;-72
2021/04/26 01:57:41;;;;;;;2.35;0.95;;;4.80;57.40;;;;;;5028916;28;20044;-72
2021/04/26 02:00:24;;;;;;;1.73;0.97;;;4.80;57.30;;;;;;5028807;28;20053;-73
2021/04/26 02:02:51;;;;;;;1.67;0.80;;;4.70;57.50;;;;;;5028956;28;20274;-72
2021/04/26 02:05:19;;;;;;;3.28;1.08;;;4.70;57.60;;;;;;5028752;28;20025;-72
2021/04/26 02:07:48;;;;;;;1.42;0.60;;;4.70;58.10;;;;;;5030438;28;20033;-72
2021/04/26 02:10:17;;;;;;;1.50;0.88;;;4.60;58.00;;;;;;5028313;28;20033;-72
2021/04/26 02:12:43;;;;;;;4.78;0.70;;;4.70;57.90;;;;;;5028681;28;20021;-72
2021/04/26 02:15:13;;;;;;;4.22;1.25;;;4.60;58.00;;;;;;5028808;28;20044;-71
2021/04/26 02:17:40;;;;;;;5.20;1.70;;;4.60;58.10;;;;;;5027583;28;20378;-72
2021/04/26 02:20:07;;;;;;;1.88;1.02;;;4.60;58.40;;;;;;5030199;28;20117;-72
2021/04/26 02:22:34;;;;;;;2.33;0.75;;;4.50;58.60;;;;;;5028901;28;20501;-72
2021/04/26 02:25:00;;;;;;;3.45;0.98;;;4.40;58.70;;;;;;5028620;28;20053;-71
2021/04/26 02:27:25;;;;;;;3.25;1.13;;;4.40;59.00;;;;;;5028701;28;20053;-73
2021/04/26 02:29:51;;;;;;;7.85;0.90;;;4.30;59.00;;;;;;5028621;28;20467;-72
2021/04/26 02:32:46;;;;;;;2.65;0.90;;;4.30;59.00;;;;;;5028984;28;20458;-73
2021/04/26 02:35:15;;;;;;;2.40;1.02;;;4.30;59.00;;;;;;5034532;28;20037;-73
2021/04/26 02:37:54;;;;;;;5.88;1.30;;;4.40;59.10;;;;;;5030075;28;20097;-73
2021/04/26 02:40:20;;;;;;;4.20;0.90;;;4.50;59.10;;;;;;5010079;28;20121;-72
2021/04/26 02:42:50;;;;;;;1.50;0.88;;;4.60;59.20;;;;;;5021809;28;20042;-72
2021/04/26 02:45:21;;;;;;;4.25;1.10;;;4.60;59.50;;;;;;5027137;28;20041;-73
2021/04/26 02:47:49;;;;;;;3.30;1.05;;;4.50;59.50;;;;;;5030075;28;20041;-73
2021/04/26 02:50:24;;;;;;;2.58;0.75;;;4.50;59.60;;;;;;5030887;28;20037;-73
2021/04/26 02:52:51;;;;;;;1.67;0.80;;;4.40;60.00;;;;;;5033585;28;20045;-72
2021/04/26 02:55:19;;;;;;;3.60;1.30;;;4.30;60.30;;;;;;5030965;28;20041;-73
2021/04/26 02:57:44;;;;;;;3.42;0.90;;;4.20;60.80;;;;;;5030640;28;20041;-74
2021/04/26 03:00:14;;;;;;;2.08;1.05;;;4.30;61.20;;;;;;5032023;28;20041;-73
2021/04/26 03:02:41;;;;;;;5.68;1.30;;;4.30;61.10;;;;;;5031962;28;20025;-72
2021/04/26 03:05:08;;;;;;;9.60;1.40;;;4.20;61.20;;;;;;5033385;28;20037;-72
2021/04/26 03:07:36;;;;;;;7.60;1.10;;;4.10;61.40;;;;;;5030807;28;20045;-72
2021/04/26 03:10:04;;;;;;;1.77;1.10;;;4.00;62.10;;;;;;5030767;28;20414;-73
2021/04/26 03:12:34;;;;;;;3.58;1.10;;;4.00;62.40;;;;;;5031992;28;20041;-72
2021/04/26 03:15:03;;;;;;;3.08;1.15;;;4.20;62.60;;;;;;5031778;28;20120;-72
2021/04/26 03:17:29;;;;;;;5.32;1.20;;;4.00;62.40;;;;;;5031780;28;20022;-72
2021/04/26 03:19:55;;;;;;;5.07;1.70;;;4.00;62.40;;;;;;5032389;28;20025;-72
2021/04/26 03:22:23;;;;;;;6.30;1.45;;;3.90;63.10;;;;;;5030814;28;20046;-73
2021/04/26 03:24:49;;;;;;;6.90;1.58;;;3.80;63.40;;;;;;5031292;28;20110;-73
2021/04/26 03:27:17;;;;;;;5.07;1.63;;;3.90;63.80;;;;;;5030292;28;20169;-73
2021/04/26 03:29:44;;;;;;;6.75;1.83;;;4.00;63.90;;;;;;5031694;28;20442;-73
2021/04/26 03:32:13;;;;;;;3.65;1.50;;;3.90;64.40;;;;;;5033267;28;20466;-72
2021/04/26 03:34:40;;;;;;;10.00;1.52;;;3.90;64.80;;;;;;5031842;28;20103;-73
2021/04/26 03:37:08;;;;;;;4.75;1.35;;;3.90;64.90;;;;;;5031306;28;20049;-72
2021/04/26 03:39:34;;;;;;;7.93;2.38;;;4.00;65.10;;;;;;5031578;28;20042;-73
2021/04/26 03:42:00;;;;;;;12.65;1.92;;;4.20;65.20;;;;;;5031777;28;20029;-73
2021/04/26 03:44:25;;;;;;;3.63;1.45;;;4.20;65.10;;;;;;5031252;28;20029;-73
2021/04/26 03:46:55;;;;;;;8.90;1.98;;;4.10;65.30;;;;;;5032711;28;20108;-73
2021/04/26 03:49:24;;;;;;;7.40;1.60;;;4.00;66.10;;;;;;5030237;28;20038;-72
2021/04/26 03:51:51;;;;;;;8.57;1.50;;;4.00;66.20;;;;;;5031324;28;20034;-73
2021/04/26 03:54:17;;;;;;;6.25;1.60;;;4.10;67.00;;;;;;5031323;28;20122;-73
2021/04/26 03:56:43;;;;;;;19.13;3.20;;;4.00;66.30;;;;;;5031085;28;20033;-72
2021/04/26 03:59:09;;;;;;;8.50;1.98;;;3.90;66.90;;;;;;5031139;28;20447;-73
2021/04/26 04:01:35;;;;;;;6.15;1.60;;;3.90;67.10;;;;;;5030983;28;20197;-73
2021/04/26 04:04:01;;;;;;;6.38;1.25;;;3.90;67.60;;;;;;5031001;28;20427;-72
2021/04/26 04:06:34;;;;;;;7.93;1.50;;;3.90;67.90;;;;;;5029217;28;20103;-73
2021/04/26 04:09:02;;;;;;;3.78;1.73;;;3.80;68.50;;;;;;5030634;28;20080;-73
2021/04/26 04:11:28;;;;;;;6.47;2.40;;;3.90;68.90;;;;;;5030796;28;20443;-72
2021/04/26 04:13:54;;;;;;;8.50;1.88;;;3.80;69.40;;;;;;5032170;28;20491;-73
2021/04/26 04:16:19;;;;;;;10.43;2.00;;;3.80;69.90;;;;;;5029653;28;20116;-73
2021/04/26 04:18:45;;;;;;;6.07;1.90;;;3.80;69.90;;;;;;5030427;28;20128;-73
2021/04/26 04:21:11;;;;;;;20.23;2.13;;;3.90;70.60;;;;;;5030437;28;20124;-73
2021/04/26 04:23:37;;;;;;;21.58;2.40;;;3.90;70.40;;;;;;5030497;28;20120;-74
2021/04/26 04:26:03;;;;;;;24.38;2.88;;;3.80;70.60;;;;;;5032026;28;20018;-73
2021/04/26 04:28:30;;;;;;;6.10;1.83;;;4.00;70.60;;;;;;5030683;28;20175;-73
2021/04/26 04:30:56;;;;;;;9.33;1.67;;;4.10;70.50;;;;;;5030317;28;20133;-72
2021/04/26 04:33:22;;;;;;;2.95;1.30;;;4.20;70.40;;;;;;5030195;28;20284;-73
2021/04/26 04:35:48;;;;;;;5.78;1.27;;;4.30;70.30;;;;;;5029682;28;20045;-72
2021/04/26 04:38:13;;;;;;;5.07;1.60;;;4.20;70.50;;;;;;5030242;28;20087;-72
2021/04/26 04:40:39;;;;;;;3.67;1.38;;;4.10;70.70;;;;;;5031872;28;20021;-72
2021/04/26 04:43:04;;;;;;;8.00;1.58;;;4.10;71.00;;;;;;5030466;28;20042;-73
2021/04/26 04:45:30;;;;;;;9.55;1.65;;;4.00;71.40;;;;;;5030272;28;20243;-74
2021/04/26 04:47:56;;;;;;;6.78;1.45;;;4.00;71.40;;;;;;5029952;28;20053;-73
2021/04/26 04:50:21;;;;;;;3.90;1.40;;;4.00;71.80;;;;;;5029999;28;20033;-72
2021/04/26 04:52:47;;;;;;;5.88;1.35;;;4.00;72.20;;;;;;5031348;28;20021;-73
2021/04/26 04:55:12;;;;;;;3.30;1.35;;;4.00;71.80;;;;;;5029786;28;20033;-73
2021/04/26 04:57:38;;;;;;;12.88;2.40;;;4.00;72.10;;;;;;5029909;28;20399;-73
2021/04/26 05:00:05;;;;;;;10.90;2.55;;;4.00;72.30;;;;;;5028881;28;20034;-73
2021/04/26 05:02:31;;;;;;;3.43;1.37;;;4.00;73.00;;;;;;5030013;28;20045;-73
2021/04/26 05:04:57;;;;;;;7.65;1.77;;;4.00;72.90;;;;;;5031233;28;20120;-74
2021/04/26 05:07:23;;;;;;;9.73;1.88;;;4.10;73.10;;;;;;5029432;28;20039;-73
2021/04/26 05:09:48;;;;;;;5.50;2.05;;;4.10;73.30;;;;;;5029450;28;20048;-73
2021/04/26 05:12:15;;;;;;;10.88;2.30;;;4.20;73.40;;;;;;5029348;28;20041;-73
2021/04/26 05:14:41;;;;;;;11.90;1.85;;;4.30;73.30;;;;;;5029730;28;20526;-72
2021/04/26 05:17:07;;;;;;;10.45;2.20;;;4.30;73.30;;;;;;5031225;28;20040;-75
2021/04/26 05:19:33;;;;;;;6.22;1.65;;;4.40;73.40;;;;;;5009034;28;20045;-73
2021/04/26 05:22:00;;;;;;;6.88;1.48;;;4.30;73.90;;;;;;5024362;28;20033;-74
2021/04/26 05:24:26;;;;;;;12.02;2.13;;;4.40;74.00;;;;;;5029191;28;20045;-73
2021/04/26 05:26:51;;;;;;;7.97;1.75;;;4.40;73.70;;;;;;5029409;28;20371;-72
2021/04/26 05:29:17;;;;;;;4.75;1.60;;;4.50;74.10;;;;;;5029492;28;20084;-72
2021/04/26 05:31:42;;;;;;;8.50;1.98;;;4.50;74.20;;;;;;5030686;28;20021;-73
2021/04/26 05:34:08;;;;;;;10.70;2.15;;;4.60;73.80;;;;;;5029230;28;20033;-72
2021/04/26 05:36:34;;;;;;;6.70;1.92;;;4.80;73.00;;;;;;5029330;28;20033;-73
2021/04/26 05:39:00;;;;;;;8.68;1.70;;;4.90;71.30;;;;;;5029058;28;20072;-72
2021/04/26 05:41:26;;;;;;;3.40;1.73;;;5.00;71.40;;;;;;5029326;28;20096;-74
2021/04/26 05:43:51;;;;;;;7.30;1.67;;;5.10;71.50;;;;;;5030634;28;20624;-75
2021/04/26 05:46:17;;;;;;;4.82;1.77;;;5.20;71.20;;;;;;5028491;28;20463;-73
2021/04/26 05:48:43;;;;;;;20.73;2.70;;;5.20;70.30;;;;;;5028820;28;20044;-73
2021/04/26 05:51:09;;;;;;;17.88;2.75;;;5.20;69.20;;;;;;5029098;28;20048;-73
2021/04/26 05:53:34;;;;;;;21.42;3.03;;;5.30;69.60;;;;;;5028003;28;20053;-76
2021/04/26 05:56:00;;;;;;;19.63;3.28;;;5.30;70.20;;;;;;5030509;28;20024;-72
2021/04/26 05:58:26;;;;;;;26.10;3.00;;;5.50;69.40;;;;;;5028609;28;20041;-73
2021/04/26 06:00:52;;;;;;;12.68;2.25;;;5.50;69.10;;;;;;5028682;28;20080;-73
2021/04/26 06:03:17;;;;;;;19.77;3.10;;;5.60;67.10;;;;;;5028444;28;20101;-73
2021/04/26 06:05:43;;;;;;;14.25;2.58;;;5.70;67.30;;;;;;5028527;28;20108;-74
2021/04/26 06:08:09;;;;;;;24.83;5.07;;;5.90;68.00;;;;;;5029291;28;20405;-73
2021/04/26 06:10:35;;;;;;;12.43;3.22;;;5.90;66.20;;;;;;5028235;28;20120;-73
2021/04/26 06:13:01;;;;;;;13.07;1.83;;;6.00;65.20;;;;;;5028356;28;20037;-73
2021/04/26 06:15:27;;;;;;;11.57;2.30;;;6.00;63.30;;;;;;5027769;28;20436;-72
2021/04/26 06:18:04;;;;;;;11.55;2.85;;;6.00;61.90;;;;;;5028366;28;20076;-73
2021/04/26 06:20:30;;;;;;;15.80;1.85;;;6.10;61.10;;;;;;5028776;28;20017;-73
2021/04/26 06:22:56;;;;;;;10.10;1.80;;;6.20;61.10;;;;;;5030829;28;20429;-73
2021/04/26 06:25:21;;;;;;;12.27;1.70;;;6.30;60.40;;;;;;5032385;28;20374;-74
2021/04/26 06:27:47;;;;;;;6.75;1.50;;;6.40;59.70;;;;;;5032038;28;20423;-72
2021/04/26 06:30:13;;;;;;;9.38;1.75;;;6.50;59.60;;;;;;5032634;28;20052;-73
2021/04/26 06:32:38;;;;;;;11.93;1.42;;;6.60;59.10;;;;;;5031019;28;20120;-73
2021/04/26 06:35:05;;;;;;;1.77;0.88;;;6.60;58.30;;;;;;5032815;28;20116;-73
2021/04/26 06:37:30;;;;;;;8.32;1.50;;;6.60;58.30;;;;;;5032172;28;20250;-72
2021/04/26 06:39:56;;;;;;;7.00;1.65;;;6.70;58.20;;;;;;5032699;28;20083;-73
2021/04/26 06:42:23;;;;;;;3.22;1.10;;;6.80;58.00;;;;;;5032352;28;20036;-73
2021/04/26 06:44:49;;;;;;;6.05;1.35;;;6.80;57.50;;;;;;5032234;28;20029;-73
2021/04/26 06:47:16;;;;;;;3.85;1.30;;;6.90;57.50;;;;;;5031943;28;20025;-72
2021/04/26 06:49:41;;;;;;;5.80;1.30;;;7.00;57.20;;;;;;5033841;28;20026;-73
2021/04/26 06:52:07;;;;;;;5.47;1.52;;;7.10;56.70;;;;;;5031007;28;20037;-74
2021/04/26 06:54:33;;;;;;;11.48;2.63;;;7.40;56.00;;;;;;5031980;28;20029;-74
2021/04/26 06:56:58;;;;;;;5.50;1.63;;;7.80;55.50;;;;;;5032223;28;20133;-72
2021/04/26 06:59:24;;;;;;;8.18;2.08;;;8.50;56.30;;;;;;5032024;28;20052;-73
2021/04/26 07:01:51;;;;;;;3.80;1.38;;;9.40;55.40;;;;;;5032411;28;20411;-74
2021/04/26 07:04:16;;;;;;;4.85;1.33;;;10.20;52.70;;;;;;5032159;28;20095;-73
2021/04/26 07:06:42;;;;;;;5.28;1.20;;;11.00;50.40;;;;;;5031682;28;20451;-73
2021/04/26 07:09:07;;;;;;;5.20;1.38;;;11.80;48.60;;;;;;5032117;28;20026;-74
2021/04/26 07:11:33;;;;;;;4.57;1.23;;;12.50;45.70;;;;;;5032252;28;20491;-74
2021/04/26 07:13:59;;;;;;;2.53;0.93;;;13.10;44.90;;;;;;5032939;28;20439;-72
2021/04/26 07:16:25;;;;;;;5.68;1.30;;;13.80;43.80;;;;;;5031514;28;20467;-72
2021/04/26 07:18:51;;;;;;;6.03;1.48;;;14.60;42.30;;;;;;5031387;28;20037;-74
2021/04/26 07:21:17;;;;;;;5.00;1.02;;;15.40;39.80;;;;;;5031163;28;20038;-73
2021/04/26 07:23:42;;;;;;;6.03;1.02;;;16.00;38.70;;;;;;5030972;28;20030;-74
2021/04/26 07:26:09;;;;;;;3.83;1.13;;;16.40;37.00;;;;;;5031730;28;20033;-74
2021/04/26 07:28:34;;;;;;;3.35;0.80;;;16.80;35.90;;;;;;5031264;28;20112;-73
2021/04/26 07:31:00;;;;;;;3.15;1.10;;;17.40;35.30;;;;;;5029941;28;20121;-73
2021/04/26 07:33:26;;;;;;;7.63;1.75;;;18.10;35.00;;;;;;5031271;28;20064;-72
2021/04/26 07:35:51;;;;;;;7.78;1.30;;;18.70;34.50;;;;;;5031210;28;20049;-73
2021/04/26 07:38:17;;;;;;;5.97;1.60;;;19.00;33.70;;;;;;5031055;28;20068;-75
2021/04/26 07:40:42;;;;;;;7.03;1.40;;;19.20;33.00;;;;;;5032714;28;20021;-73
2021/04/26 07:43:09;;;;;;;4.80;1.63;;;19.60;32.40;;;;;;5031241;28;20434;-73
2021/04/26 07:45:34;;;;;;;8.85;1.70;;;20.10;32.00;;;;;;5029783;28;20037;-73
2021/04/26 07:48:00;;;;;;;12.90;2.42;;;20.30;31.70;;;;;;5030901;28;20055;-73
2021/04/26 07:50:26;;;;;;;4.65;1.70;;;20.50;30.90;;;;;;5029656;28;20136;-73
2021/04/26 07:52:52;;;;;;;7.40;2.28;;;20.80;30.00;;;;;;5032079;28;20050;-72
2021/04/26 07:55:18;;;;;;;5.10;1.90;;;21.00;29.60;;;;;;5030245;28;20025;-74
2021/04/26 07:57:44;;;;;;;6.55;1.38;;;21.60;29.10;;;;;;5030946;28;20060;-73
2021/04/26 08:00:10;;;;;;;7.45;1.45;;;22.30;28.10;;;;;;5029684;28;20043;-74
2021/04/26 08:02:36;;;;;;;4.38;1.38;;;22.40;28.10;;;;;;5030699;28;20499;-73
2021/04/26 08:05:02;;;;;;;5.05;1.50;;;22.40;27.50;;;;;;5031150;28;20044;-74
2021/04/26 08:07:28;;;;;;;7.00;1.40;;;22.80;26.90;;;;;;5030262;28;20030;-73
2021/04/26 08:09:54;;;;;;;6.43;1.77;;;23.60;27.10;;;;;;5030408;28;20446;-74
2021/04/26 08:12:20;;;;;;;7.15;1.92;;;24.20;27.00;;;;;;5030809;28;20025;-74
2021/04/26 08:14:46;;;;;;;10.05;1.52;;;24.40;26.30;;;;;;5030296;28;20030;-74
2021/04/26 08:17:12;;;;;;;2.42;1.05;;;24.30;26.70;;;;;;5029731;28;20087;-74
2021/04/26 08:19:38;;;;;;;8.07;1.88;;;24.60;25.70;;;;;;5030896;28;20382;-74
2021/04/26 08:22:03;;;;;;;7.40;1.10;;;24.50;25.20;;;;;;5030483;28;20038;-73
2021/04/26 08:24:29;;;;;;;4.47;1.50;;;24.70;24.00;;;;;;5030131;28;20374;-73
2021/04/26 08:26:56;;;;;;;2.45;1.02;;;24.80;24.00;;;;;;5030144;28;20099;-73
2021/04/26 08:29:22;;;;;;;3.92;1.30;;;25.50;24.50;;;;;;5030341;28;20033;-74
2021/04/26 08:31:47;;;;;;;3.33;1.17;;;25.30;23.70;;;;;;5031601;28;20098;-75
2021/04/26 08:34:13;;;;;;;4.13;1.20;;;25.60;23.70;;;;;;5030358;28;20362;-75
2021/04/26 08:36:39;;;;;;;3.92;1.02;;;25.80;23.50;;;;;;5018198;28;20378;-74
2021/04/26 08:39:05;;;;;;;4.97;1.02;;;25.90;22.80;;;;;;5017517;28;20096;-74
2021/04/26 08:41:31;;;;;;;3.05;1.17;;;24.80;22.20;;;;;;5030062;28;20145;-74
2021/04/26 08:43:57;;;;;;;2.88;1.35;;;24.90;22.00;;;;;;5031422;28;20022;-73
2021/04/26 08:46:22;;;;;;;5.47;1.13;;;25.20;22.70;;;;;;5029576;28;20113;-73
2021/04/26 08:48:48;;;;;;;1.08;0.80;;;25.10;21.70;;;;;;5029670;28;20503;-73
2021/04/26 08:51:13;;;;;;;5.15;1.08;;;24.80;22.30;;;;;;5029716;28;20471;-74
2021/04/26 08:53:39;;;;;;;4.30;1.38;;;25.00;22.30;;;;;;5029829;28;20586;-74
2021/04/26 08:56:07;;;;;;;1.40;0.95;;;25.30;21.50;;;;;;5031793;28;20234;-73
2021/04/26 08:58:33;;;;;;;5.78;1.17;;;25.70;22.20;;;;;;5028512;28;20061;-73
2021/04/26 09:00:59;;;;;;;2.10;0.90;;;25.70;21.50;;;;;;5028666;28;20099;-72
2021/04/26 09:03:36;;;;;;;4.30;0.95;;;25.20;21.00;;;;;;5029764;28;20095;-73
2021/04/26 09:06:02;;;;;;;1.80;1.00;;;24.60;21.30;;;;;;5027942;28;20045;-72
2021/04/26 09:08:29;;;;;;;5.50;1.05;;;25.10;22.00;;;;;;5029415;28;20035;-73
2021/04/26 09:11:06;;;;;;;3.83;1.08;;;24.50;21.50;;;;;;5031156;28;20021;-73
2021/04/26 09:13:49;;;;;;;6.75;1.65;;;23.50;22.00;;;;;;5028967;28;20095;-75
2021/04/26 09:16:30;;;;;;;4.13;1.33;;;25.20;22.60;;;;;;5029525;28;20030;-72
2021/04/26 09:18:56;;;;;;;2.33;1.05;;;25.60;22.10;;;;;;5028719;28;20041;-73
2021/04/26 09:21:32;;;;;;;6.32;1.77;;;26.00;22.10;;;;;;5029904;28;20133;-73
2021/04/26 09:24:09;;;;;;;3.30;1.10;;;26.70;21.90;;;;;;5028681;28;20388;-73
2021/04/26 09:26:35;;;;;;;6.22;1.05;;;26.70;21.40;;;;;;5029239;28;20060;-73
2021/04/26 09:29:14;;;;;;;2.97;1.27;;;25.20;20.90;;;;;;5030625;28;20451;-73
2021/04/26 09:31:40;;;;;;;4.00;1.20;;;24.00;21.80;;;;;;5029480;28;20061;-74
2021/04/26 09:34:26;;;;;;;6.38;1.30;;;23.60;22.20;;;;;;5029085;28;20040;-73
2021/04/26 09:37:03;;;;;;;4.07;1.05;;;23.10;22.60;;;;;;5028046;28;20041;-73
2021/04/26 09:39:28;;;;;;;2.40;1.10;;;22.20;22.80;;;;;;5028997;28;20120;-74
2021/04/26 09:41:56;;;;;;;7.47;1.38;;;21.30;23.10;;;;;;5028998;28;20519;-75
2021/04/26 09:44:21;;;;;;;7.17;1.23;;;20.70;23.50;;;;;;5027877;28;20036;-75
2021/04/26 09:46:52;;;;;;;4.90;1.20;;;20.20;23.90;;;;;;5030623;28;20720;-73
2021/04/26 09:49:26;;;;;;;3.42;1.08;;;20.20;24.40;;;;;;5027997;28;20037;-73
2021/04/26 09:51:54;;;;;;;3.15;0.90;;;20.60;24.20;;;;;;5027895;28;20030;-73
2021/04/26 09:54:37;;;;;;;6.57;1.35;;;22.20;23.90;;;;;;5027607;28;20068;-73
2021/04/26 09:57:05;;;;;;;2.05;1.05;;;23.90;23.30;;;;;;5010384;28;20033;-74
2021/04/26 09:59:31;;;;;;;3.53;1.55;;;24.90;22.80;;;;;;5028392;28;20313;-74
2021/04/26 10:01:57;;;;;;;4.18;1.10;;;25.60;22.20;;;;;;5030604;28;20083;-73
2021/04/26 10:04:23;;;;;;;5.45;1.70;;;25.40;21.90;;;;;;5027569;28;20029;-73
2021/04/26 10:06:49;;;;;;;5.22;1.17;;;24.70;21.90;;;;;;5027957;28;20068;-73
2021/04/26 10:09:15;;;;;;;2.35;0.90;;;23.70;22.20;;;;;;5028444;28;20121;-72
2021/04/26 10:11:41;;;;;;;4.72;1.38;;;22.40;22.30;;;;;;5028270;28;20104;-73
2021/04/26 10:14:08;;;;;;;5.30;1.27;;;22.70;23.10;;;;;;5029950;28;20029;-73
2021/04/26 10:16:51;;;;;;;7.00;2.33;;;23.40;22.80;;;;;;5028465;28;20489;-73
2021/04/26 10:19:17;;;;;;;5.95;1.70;;;22.70;22.20;;;;;;5028877;28;20557;-74
2021/04/26 10:21:54;;;;;;;8.40;1.15;;;21.70;22.40;;;;;;5028701;28;20045;-73
2021/04/26 10:24:22;;;;;;;4.40;2.00;;;21.90;22.70;;;;;;5028417;28;20045;-74
2021/04/26 10:26:54;;;;;;;4.90;1.45;;;21.80;22.90;;;;;;5028219;28;20056;-73
2021/04/26 10:29:26;;;;;;;4.05;1.20;;;22.50;23.40;;;;;;5028308;28;20433;-73
2021/04/26 10:32:04;;;;;;;7.30;3.67;;;22.90;23.10;;;;;;5029973;28;20040;-74
2021/04/26 10:34:43;;;;;;;4.10;1.48;;;22.50;22.90;;;;;;5028580;28;20041;-74
2021/04/26 10:37:15;;;;;;;3.17;1.25;;;21.30;23.10;;;;;;5027594;28;20127;-73
2021/04/26 10:40:07;;;;;;;4.15;1.63;;;20.70;23.60;;;;;;5027492;28;20025;-74
2021/04/26 10:42:45;;;;;;;2.75;1.40;;;20.00;23.80;;;;;;5028382;28;20136;-75
2021/04/26 10:45:19;;;;;;;2.40;1.38;;;18.80;23.70;;;;;;5027324;28;20033;-74
2021/04/26 10:47:51;;;;;;;3.53;1.10;;;18.60;24.30;;;;;;5028134;28;20045;-74
2021/04/26 10:50:19;;;;;;;2.45;1.60;;;18.60;24.50;;;;;;5028188;28;20025;-73
2021/04/26 10:52:54;;;;;;;4.32;1.27;;;18.30;24.60;;;;;;5028974;28;20459;-72
2021/04/26 10:55:22;;;;;;;4.80;1.50;;;18.20;24.70;;;;;;5027152;28;20383;-73
2021/04/26 10:57:59;;;;;;;3.92;1.50;;;18.10;25.10;;;;;;5028348;28;20478;-73
2021/04/26 11:00:31;;;;;;;2.88;1.33;;;18.20;25.10;;;;;;5026983;28;20037;-73
2021/04/26 11:02:57;;;;;;;5.70;1.65;;;18.40;25.30;;;;;;5026929;28;20030;-72
2021/04/26 11:05:38;;;;;;;7.75;1.40;;;18.10;25.30;;;;;;5027086;28;20040;-73
2021/04/26 11:08:12;;;;;;;2.72;1.30;;;17.80;25.50;;;;;;5029913;28;20026;-74
2021/04/26 11:10:42;;;;;;;5.78;1.35;;;17.50;25.80;;;;;;5032451;28;20029;-74
2021/04/26 11:13:32;;;;;;;3.90;1.60;;;17.40;26.00;;;;;;5031862;28;20121;-73
2021/04/26 11:16:23;;;;;;;4.65;1.52;;;17.20;25.90;;;;;;5031599;28;20037;-75
2021/04/26 11:18:57;;;;;;;3.72;1.40;;;17.10;25.90;;;;;;5031649;28;20064;-74
2021/04/26 11:21:42;;;;;;;4.38;1.30;;;17.00;26.00;;;;;;5031674;28;20469;-72
2021/04/26 11:24:09;;;;;;;1.50;0.80;;;16.30;25.70;;;;;;5031306;28;20049;-72
2021/04/26 11:26:35;;;;;;;5.97;1.45;;;16.50;26.60;;;;;;5031489;28;20438;-74
2021/04/26 11:29:16;;;;;;;2.67;1.40;;;16.50;26.50;;;;;;5031690;28;20275;-74
2021/04/26 11:31:41;;;;;;;6.10;1.70;;;16.40;26.30;;;;;;5030384;28;20030;-73
2021/04/26 11:34:07;;;;;;;7.50;1.73;;;16.40;26.60;;;;;;5030986;28;20506;-74
2021/04/26 11:36:35;;;;;;;6.38;1.60;;;16.30;26.70;;;;;;5029803;28;20045;-75
2021/04/26 11:39:03;;;;;;;4.53;1.30;;;16.20;26.70;;;;;;5031349;28;20029;-73
2021/04/26 11:41:42;;;;;;;3.55;1.40;;;16.00;26.80;;;;;;5031012;28;20026;-74
2021/04/26 11:44:08;;;;;;;3.92;1.50;;;16.00;26.80;;;;;;5032557;28;20033;-73
2021/04/26 11:46:34;;;;;;;4.85;1.33;;;15.90;26.80;;;;;;5029672;28;20072;-74
2021/04/26 11:49:17;;;;;;;5.20;1.42;;;15.60;26.70;;;;;;5029807;28;20072;-74
2021/04/26 11:51:44;;;;;;;3.50;1.33;;;15.40;27.20;;;;;;5030713;28;20048;-73
2021/04/26 11:54:11;;;;;;;1.80;0.95;;;15.50;27.30;;;;;;5031132;28;20041;-74
2021/04/26 11:56:37;;;;;;;3.03;1.30;;;15.50;27.30;;;;;;5030871;28;20068;-73
2021/04/26 11:59:05;;;;;;;2.63;1.50;;;15.70;27.40;;;;;;5032396;28;20559;-73
2021/04/26 12:01:31;;;;;;;3.40;1.83;;;15.80;27.20;;;;;;5030264;28;20174;-73
2021/04/26 12:03:57;;;;;;;4.28;1.67;;;15.80;27.10;;;;;;5030642;28;20471;-73
2021/04/26 12:06:23;;;;;;;4.03;1.50;;;15.70;27.00;;;;;;5030318;28;20052;-73
2021/04/26 12:08:49;;;;;;;4.18;1.40;;;15.50;27.00;;;;;;5030556;28;20033;-74
2021/04/26 12:11:20;;;;;;;3.30;1.30;;;15.50;27.30;;;;;;5029436;28;20113;-74
2021/04/26 12:14:24;;;;;;;2.85;1.45;;;15.60;27.30;;;;;;5031994;28;20022;-73
2021/04/26 12:16:50;;;;;;;6.50;2.38;;;15.70;27.40;;;;;;5028509;28;20113;-73
2021/04/26 12:19:30;;;;;;;6.28;1.45;;;15.80;27.40;;;;;;5028328;28;20117;-73
2021/04/26 12:21:56;;;;;;;8.95;2.03;;;15.80;27.40;;;;;;5028846;28;20371;-76
2021/04/26 12:24:22;;;;;;;2.40;1.45;;;15.90;27.30;;;;;;5030274;28;20042;-73
2021/04/26 12:26:47;;;;;;;6.28;1.60;;;15.90;27.20;;;;;;5030471;28;20042;-74
2021/04/26 12:29:28;;;;;;;6.75;1.38;;;15.90;27.30;;;;;;5030246;28;20055;-74
2021/04/26 12:32:09;;;;;;;9.07;1.83;;;16.10;27.40;;;;;;5031961;28;20017;-74
2021/04/26 12:34:55;;;;;;;9.10;1.73;;;16.20;27.10;;;;;;5029160;28;20383;-75
2021/04/26 12:37:24;;;;;;;2.85;1.35;;;16.40;27.10;;;;;;5030216;28;20056;-73
2021/04/26 12:39:50;;;;;;;4.60;1.52;;;16.20;26.70;;;;;;5028796;28;20042;-73
2021/04/26 12:42:21;;;;;;;6.15;1.50;;;16.00;27.00;;;;;;5030108;28;20060;-75
2021/04/26 12:44:48;;;;;;;4.97;2.72;;;16.10;27.10;;;;;;5030048;28;20034;-74
2021/04/26 12:47:25;;;;;;;3.33;1.73;;;16.40;26.90;;;;;;5029792;28;20021;-75
2021/04/26 12:50:14;;;;;;;3.15;1.58;;;16.30;26.90;;;;;;5031687;28;20357;-74
2021/04/26 12:52:40;;;;;;;5.32;1.10;;;16.20;27.00;;;;;;5030377;28;20402;-74
2021/04/26 12:55:12;;;;;;;2.60;1.30;;;16.30;27.10;;;;;;5030305;28;20035;-73
2021/04/26 12:57:39;;;;;;;7.28;1.67;;;16.20;27.10;;;;;;5029925;28;20065;-74